createdAt,value
2022-10-14T00:00:12.369Z,31.95
2022-10-14T00:02:38.837Z,32.67
2022-10-14T00:05:05.631Z,30.98
2022-10-14T00:07:32.166Z,31.60
2022-10-14T00:09:58.674Z,32.08
2022-10-14T00:12:25.225Z,33.97
2022-10-14T00:14:51.758Z,33.00
2022-10-14T00:17:18.381Z,33.47
2022-10-14T00:19:45.243Z,34.50
2022-10-14T00:22:11.785Z,33.50
2022-10-14T00:24:38.322Z,36.05
2022-10-14T00:27:04.882Z,37.30
2022-10-14T00:29:31.408Z,35.45
2022-10-14T00:31:58.057Z,37.28
2022-10-14T00:34:24.537Z,36.25
2022-10-14T00:36:51.350Z,38.15
2022-10-14T00:39:19.037Z,35.28
2022-10-14T00:41:45.586Z,36.50
2022-10-14T00:44:14.788Z,36.92
2022-10-14T00:46:46.113Z,37.88
2022-10-14T00:49:21.726Z,38.20
2022-10-14T00:51:56.294Z,35.78
2022-10-14T00:54:28.176Z,36.10
2022-10-14T00:56:54.860Z,36.85
2022-10-14T00:59:22.321Z,36.97
2022-10-14T01:01:48.896Z,36.53
2022-10-14T01:04:16.414Z,37.28
2022-10-14T01:06:54.767Z,36.80
2022-10-14T01:09:33.750Z,35.72
2022-10-14T01:12:35.648Z,37.10
2022-10-14T01:15:41.920Z,36.88
2022-10-14T01:18:24.838Z,36.13
2022-10-14T01:21:12.887Z,36.30
2022-10-14T01:23:53.777Z,34.60
2022-10-14T01:26:57.644Z,38.10
2022-10-14T01:29:45.804Z,35.95
2022-10-14T01:32:22.963Z,36.90
2022-10-14T01:34:54.795Z,37.45
2022-10-14T01:39:52.605Z,35.10
2022-10-14T01:42:23.196Z,37.95
2022-10-14T01:44:55.701Z,36.97
2022-10-14T01:47:23.662Z,39.67
2022-10-14T01:49:55.117Z,38.38
2022-10-14T01:52:27.557Z,38.40
2022-10-14T01:54:56.822Z,38.72
2022-10-14T01:57:26.670Z,40.25
2022-10-14T01:59:54.928Z,38.17
2022-10-14T02:02:22.175Z,39.17
2022-10-14T02:04:48.895Z,37.78
2022-10-14T02:07:27.340Z,37.72
2022-10-14T02:10:17.490Z,36.45
2022-10-14T02:13:16.807Z,37.85
2022-10-14T02:16:07.065Z,36.83
2022-10-14T02:18:45.335Z,38.67
2022-10-14T02:21:11.847Z,38.28
2022-10-14T02:23:42.449Z,37.63
2022-10-14T02:26:09.392Z,38.42
2022-10-14T02:28:36.736Z,37.90
2022-10-14T02:31:08.528Z,40.17
2022-10-14T02:33:40.208Z,38.58
2022-10-14T02:36:09.935Z,39.08
2022-10-14T02:38:37.551Z,41.03
2022-10-14T02:41:05.812Z,39.78
2022-10-14T02:43:35.019Z,41.83
2022-10-14T02:46:06.058Z,40.70
2022-10-14T02:48:33.374Z,42.85
2022-10-14T02:50:59.889Z,43.13
2022-10-14T02:53:26.473Z,46.17
2022-10-14T02:55:53.075Z,49.20
2022-10-14T02:58:19.631Z,46.97
2022-10-14T03:00:49.485Z,51.72
2022-10-14T03:03:17.128Z,52.08
2022-10-14T03:05:44.013Z,53.58
2022-10-14T03:08:13.333Z,54.22
2022-10-14T03:10:40.613Z,54.08
2022-10-14T03:13:09.926Z,53.85
2022-10-14T03:15:41.578Z,54.88
2022-10-14T03:18:10.093Z,54.65
2022-10-14T03:20:44.632Z,57.33
2022-10-14T03:23:13.216Z,59.45
2022-10-14T03:25:40.775Z,63.22
2022-10-14T03:28:11.928Z,64.30
2022-10-14T03:30:46.106Z,63.78
2022-10-14T03:33:20.440Z,62.78
2022-10-14T03:36:07.467Z,61.33
2022-10-14T03:38:46.382Z,57.75
2022-10-14T03:41:24.530Z,57.95
2022-10-14T03:43:52.124Z,53.97
2022-10-14T03:46:19.550Z,53.95
2022-10-14T03:48:46.112Z,53.20
2022-10-14T03:51:12.747Z,52.28
2022-10-14T03:53:42.009Z,49.95
2022-10-14T03:56:10.498Z,49.22
2022-10-14T03:58:37.244Z,49.85
2022-10-14T04:01:10.238Z,49.42
2022-10-14T04:04:03.792Z,49.28
2022-10-14T04:06:31.379Z,47.25
2022-10-14T04:09:00.833Z,47.47
2022-10-14T04:11:33.470Z,46.10
2022-10-14T04:14:04.872Z,45.95
2022-10-14T04:16:36.014Z,45.35
2022-10-14T04:19:07.841Z,43.25
2022-10-14T04:21:34.447Z,44.55
2022-10-14T04:24:04.812Z,42.42
2022-10-14T04:26:40.426Z,43.38
2022-10-14T04:29:13.151Z,42.75
2022-10-14T04:31:50.494Z,41.13
2022-10-14T04:34:18.201Z,40.13
2022-10-14T04:36:44.713Z,41.90
2022-10-14T04:39:23.292Z,38.97
2022-10-14T04:41:49.930Z,38.88
2022-10-14T04:44:19.550Z,38.42
2022-10-14T04:46:52.453Z,35.92
2022-10-14T04:49:22.404Z,35.25
2022-10-14T04:51:58.038Z,33.90
2022-10-14T04:54:37.911Z,34.35
2022-10-14T04:57:04.538Z,33.78
2022-10-14T04:59:31.065Z,33.38
2022-10-14T05:01:57.764Z,34.50
2022-10-14T05:04:32.819Z,33.38
2022-10-14T05:07:00.748Z,32.72
2022-10-14T05:09:28.285Z,35.58
2022-10-14T05:11:55.214Z,35.80
2022-10-14T05:14:29.702Z,34.10
2022-10-14T05:17:07.477Z,34.05
2022-10-14T05:19:35.034Z,33.05
2022-10-14T05:22:01.891Z,32.95
2022-10-14T05:24:34.718Z,32.72
2022-10-14T05:27:02.846Z,33.83
2022-10-14T05:29:30.846Z,35.38
2022-10-14T05:31:58.192Z,34.80
2022-10-14T05:34:40.957Z,36.97
2022-10-14T05:37:10.606Z,36.67
2022-10-14T05:39:44.065Z,37.47
2022-10-14T05:42:11.064Z,36.17
2022-10-14T05:44:40.231Z,35.80
2022-10-14T05:47:07.119Z,37.03
2022-10-14T05:49:35.180Z,36.92
2022-10-14T05:52:04.394Z,36.92
2022-10-14T05:54:32.555Z,35.72
2022-10-14T05:56:59.154Z,36.83
2022-10-14T05:59:26.360Z,36.47
2022-10-14T06:01:52.939Z,36.28
2022-10-14T06:04:20.609Z,33.63
2022-10-14T06:06:47.224Z,35.28
2022-10-14T06:09:15.671Z,34.40
2022-10-14T06:11:42.425Z,33.65
2022-10-14T06:14:09.504Z,33.33
2022-10-14T06:16:36.020Z,33.45
2022-10-14T06:19:05.349Z,33.42
2022-10-14T06:21:31.827Z,32.08
2022-10-14T06:23:58.330Z,34.55
2022-10-14T06:26:24.868Z,32.90
2022-10-14T06:28:51.395Z,34.70
2022-10-14T06:31:17.970Z,33.38
2022-10-14T06:33:45.183Z,33.75
2022-10-14T06:36:12.071Z,32.97
2022-10-14T06:38:38.842Z,32.55
2022-10-14T06:41:05.358Z,32.05
2022-10-14T06:43:31.869Z,32.65
2022-10-14T06:45:58.599Z,30.98
2022-10-14T06:48:25.088Z,29.13
2022-10-14T06:50:51.821Z,30.70
2022-10-14T06:53:18.647Z,30.67
2022-10-14T06:55:45.359Z,30.42
2022-10-14T06:58:11.889Z,30.90
2022-10-14T07:00:38.449Z,30.50
2022-10-14T07:03:04.960Z,31.40
2022-10-14T07:05:31.635Z,31.65
2022-10-14T07:07:58.617Z,33.67
2022-10-14T07:10:25.174Z,35.33
2022-10-14T07:12:55.647Z,38.95
2022-10-14T07:15:22.635Z,42.28
2022-10-14T07:17:49.282Z,44.40
2022-10-14T07:20:16.030Z,47.22
2022-10-14T07:22:42.700Z,46.90
2022-10-14T07:25:09.664Z,50.50
2022-10-14T07:27:36.442Z,49.45
2022-10-14T07:30:03.570Z,53.78
2022-10-14T07:32:30.093Z,51.47
2022-10-14T07:34:56.635Z,53.17
2022-10-14T07:37:23.657Z,51.38
2022-10-14T07:39:50.481Z,50.50
2022-10-14T07:42:17.067Z,39.13
2022-10-14T07:44:45.705Z,41.47
2022-10-14T07:47:12.990Z,35.50
2022-10-14T07:49:39.566Z,34.70
2022-10-14T07:52:06.111Z,31.63
2022-10-14T07:54:33.070Z,31.77
2022-10-14T07:56:59.834Z,29.33
2022-10-14T07:59:26.771Z,29.25
2022-10-14T08:01:54.202Z,28.67
2022-10-14T08:04:20.859Z,27.58
2022-10-14T08:06:48.505Z,26.38
2022-10-14T08:09:15.479Z,25.80
2022-10-14T08:11:42.984Z,25.33
2022-10-14T08:14:09.567Z,26.52
2022-10-14T08:16:36.792Z,25.65
2022-10-14T08:19:13.861Z,24.58
2022-10-14T08:21:42.026Z,24.05
2022-10-14T08:24:08.783Z,24.35
2022-10-14T08:26:39.611Z,25.08
2022-10-14T08:29:10.520Z,24.27
2022-10-14T08:31:37.355Z,24.55
2022-10-14T08:34:04.010Z,25.90
2022-10-14T08:36:30.539Z,26.15
2022-10-14T08:38:57.230Z,24.42
2022-10-14T08:41:57.676Z,25.10
2022-10-14T08:44:33.733Z,22.63
2022-10-14T08:47:02.284Z,22.10
2022-10-14T08:49:33.535Z,21.83
2022-10-14T08:52:08.413Z,22.35
2022-10-14T08:54:49.672Z,21.77
2022-10-14T08:57:21.250Z,21.92
2022-10-14T08:59:47.904Z,20.35
2022-10-14T09:02:32.854Z,20.58
2022-10-14T09:04:59.966Z,20.20
2022-10-14T09:07:26.801Z,20.05
2022-10-14T09:09:58.257Z,20.48
2022-10-14T09:12:28.118Z,19.52
2022-10-14T09:15:02.830Z,19.48
2022-10-14T09:17:38.059Z,19.13
2022-10-14T09:20:13.975Z,18.73
2022-10-14T09:22:40.580Z,19.17
2022-10-14T09:25:13.229Z,18.38
2022-10-14T09:27:39.805Z,18.17
2022-10-14T09:30:12.653Z,19.25
2022-10-14T09:32:45.550Z,17.98
2022-10-14T09:35:26.974Z,18.13
2022-10-14T09:40:41.712Z,16.92
2022-10-14T09:43:08.270Z,16.98
2022-10-14T09:45:51.678Z,17.85
2022-10-14T09:48:33.657Z,18.45
2022-10-14T09:51:02.164Z,17.75
2022-10-14T09:53:31.668Z,18.83
2022-10-14T09:56:00.449Z,17.58
2022-10-14T09:58:53.622Z,19.02
2022-10-14T10:01:22.565Z,18.02
2022-10-14T10:03:50.291Z,18.23
2022-10-14T10:06:20.183Z,19.00
2022-10-14T10:08:52.556Z,18.52
2022-10-14T10:11:37.338Z,17.58
2022-10-14T10:14:23.726Z,17.65
2022-10-14T10:16:52.500Z,18.00
2022-10-14T10:19:39.516Z,16.90
2022-10-14T10:22:24.382Z,16.52
2022-10-14T10:25:03.670Z,16.27
2022-10-14T10:27:38.785Z,17.38
2022-10-14T10:30:14.831Z,17.90
2022-10-14T10:32:51.126Z,17.10
2022-10-14T10:35:27.935Z,16.20
2022-10-14T10:38:06.639Z,16.02
2022-10-14T10:40:36.026Z,15.90
2022-10-14T10:43:42.517Z,18.65
2022-10-14T10:46:46.627Z,21.05
2022-10-14T10:49:19.403Z,21.83
2022-10-14T10:52:16.090Z,23.40
2022-10-14T10:54:51.287Z,21.75
2022-10-14T10:57:47.862Z,22.15
2022-10-14T11:00:22.432Z,22.85
2022-10-14T11:03:17.068Z,23.00
2022-10-14T11:05:51.761Z,20.55
2022-10-14T11:08:46.310Z,18.85
2022-10-14T11:11:45.363Z,17.98
2022-10-14T11:14:36.034Z,17.48
2022-10-14T11:17:09.274Z,19.27
2022-10-14T11:19:46.995Z,20.85
2022-10-14T11:22:32.252Z,24.33
2022-10-14T11:25:16.240Z,26.00
2022-10-14T11:27:52.455Z,27.35
2022-10-14T11:30:30.792Z,32.42
2022-10-14T11:33:39.014Z,33.70
2022-10-14T11:36:34.452Z,32.95
2022-10-14T11:39:11.942Z,33.70
2022-10-14T11:41:47.183Z,32.75
2022-10-14T11:44:25.843Z,32.25
2022-10-14T11:46:58.291Z,31.30
2022-10-14T11:49:30.991Z,31.17
2022-10-14T11:52:02.989Z,29.60
2022-10-14T11:54:43.500Z,31.48
2022-10-14T11:57:25.570Z,30.20
2022-10-14T12:00:36.022Z,28.05
2022-10-14T12:03:24.094Z,28.70
2022-10-14T12:06:04.841Z,29.27
2022-10-14T12:08:38.403Z,30.08
2022-10-14T12:11:09.396Z,28.90
2022-10-14T12:13:52.185Z,31.23
2022-10-14T12:16:20.623Z,32.15
2022-10-14T12:18:50.706Z,32.15
2022-10-14T12:21:32.684Z,34.03
2022-10-14T12:24:05.044Z,35.13
2022-10-14T12:26:51.457Z,34.20
2022-10-14T12:29:23.558Z,33.72
2022-10-14T12:32:06.340Z,30.95
2022-10-14T12:34:35.426Z,28.15
2022-10-14T12:37:31.394Z,27.02
2022-10-14T12:40:07.349Z,28.17
2022-10-14T12:42:58.916Z,26.33
2022-10-14T12:45:27.685Z,26.00
2022-10-14T12:48:21.134Z,24.48
2022-10-14T12:50:48.946Z,24.92
2022-10-14T12:53:24.502Z,25.77
2022-10-14T12:55:54.507Z,24.98
2022-10-14T12:58:42.653Z,25.67
2022-10-14T13:01:21.335Z,23.92
2022-10-14T13:03:56.659Z,25.08
2022-10-14T13:06:28.257Z,26.52
2022-10-14T13:09:12.824Z,26.52
2022-10-14T13:11:41.252Z,27.73
2022-10-14T13:14:27.797Z,30.92
2022-10-14T13:17:24.601Z,30.60
2022-10-14T13:19:51.321Z,30.98
2022-10-14T13:22:34.364Z,32.15
2022-10-14T13:25:13.740Z,33.15
2022-10-14T13:27:55.587Z,31.42
2022-10-14T13:30:25.228Z,28.52
2022-10-14T13:33:00.639Z,28.13
2022-10-14T13:35:45.636Z,28.20
2022-10-14T13:38:17.667Z,26.58
2022-10-14T13:40:57.857Z,28.13
2022-10-14T13:43:39.439Z,28.20
2022-10-14T13:46:12.336Z,29.95
2022-10-14T13:48:41.349Z,29.60
2022-10-14T13:51:37.106Z,28.10
2022-10-14T13:54:26.086Z,28.85
2022-10-14T14:00:38.945Z,29.35
2022-10-14T14:02:42.880Z,28.50
2022-10-14T14:05:16.136Z,28.65
2022-10-14T14:10:30.721Z,28.13
2022-10-14T14:12:58.490Z,27.65
2022-10-14T14:15:27.257Z,31.88
2022-10-14T14:17:54.270Z,30.02
2022-10-14T14:20:23.265Z,30.50
2022-10-14T14:22:50.561Z,30.23
2022-10-14T14:25:38.155Z,29.23
2022-10-14T14:28:13.494Z,28.38
2022-10-14T14:30:53.360Z,30.60
2022-10-14T14:33:47.553Z,29.83
2022-10-14T14:36:27.779Z,30.30
2022-10-14T14:39:01.809Z,29.50
2022-10-14T14:41:30.906Z,27.88
2022-10-14T14:44:24.499Z,28.67
2022-10-14T14:46:53.259Z,28.55
2022-10-14T14:49:24.710Z,28.58
2022-10-14T14:54:20.051Z,27.52
2022-10-14T14:57:11.006Z,29.65
2022-10-14T14:59:42.085Z,28.13
2022-10-14T15:02:17.635Z,29.95
2022-10-14T15:04:58.263Z,30.13
2022-10-14T15:07:27.205Z,29.00
2022-10-14T15:09:56.599Z,30.33
2022-10-14T15:12:30.556Z,28.90
2022-10-14T15:14:59.205Z,29.48
2022-10-14T15:17:34.095Z,30.38
2022-10-14T15:20:30.195Z,29.50
2022-10-14T15:22:56.856Z,30.30
2022-10-14T15:25:31.619Z,29.95
2022-10-14T15:27:59.977Z,29.45
2022-10-14T15:30:36.486Z,28.33
2022-10-14T15:33:05.944Z,25.40
2022-10-14T15:35:34.170Z,22.00
2022-10-14T15:38:00.714Z,18.23
2022-10-14T15:40:31.753Z,18.00
2022-10-14T15:42:58.804Z,15.65
2022-10-14T15:45:26.057Z,15.95
2022-10-14T15:50:29.293Z,14.20
2022-10-14T15:52:56.967Z,13.02
2022-10-14T15:55:29.858Z,13.88
2022-10-14T15:57:57.205Z,14.60
2022-10-14T16:00:24.913Z,14.38
2022-10-14T16:03:00.260Z,15.07
2022-10-14T16:05:29.047Z,14.90
2022-10-14T16:07:56.429Z,15.15
2022-10-14T16:10:23.849Z,15.82
2022-10-14T16:12:50.975Z,16.45
2022-10-14T16:15:28.307Z,15.88
2022-10-14T16:17:55.092Z,16.60
2022-10-14T16:20:22.261Z,17.00
2022-10-14T16:22:48.811Z,16.38
2022-10-14T16:25:30.907Z,15.90
2022-10-14T16:27:57.863Z,15.48
2022-10-14T16:30:27.100Z,16.20
2022-10-14T16:32:54.685Z,15.15
2022-10-14T16:35:21.168Z,14.95
2022-10-14T16:37:48.785Z,15.45
2022-10-14T16:40:15.479Z,15.00
2022-10-14T16:42:41.948Z,16.50
2022-10-14T16:45:08.669Z,15.63
2022-10-14T16:47:35.182Z,16.60
2022-10-14T16:50:02.256Z,15.32
2022-10-14T16:52:28.788Z,15.57
2022-10-14T16:54:55.349Z,14.70
2022-10-14T16:57:21.957Z,15.63
2022-10-14T16:59:48.518Z,16.42
2022-10-14T17:02:16.417Z,16.08
2022-10-14T17:04:46.198Z,16.23
2022-10-14T17:07:14.695Z,14.80
2022-10-14T17:09:41.208Z,16.63
2022-10-14T17:12:12.891Z,16.00
2022-10-14T17:14:40.919Z,17.20
2022-10-14T17:17:07.411Z,16.75
2022-10-14T17:19:33.987Z,17.13
2022-10-14T17:22:02.990Z,17.48
2022-10-14T17:24:29.772Z,17.10
2022-10-14T17:26:56.452Z,16.40
2022-10-14T17:29:23.042Z,15.73
2022-10-14T17:31:50.075Z,16.15
2022-10-14T17:34:16.588Z,15.73
2022-10-14T17:36:43.068Z,15.20
2022-10-14T17:39:17.677Z,16.27
2022-10-14T17:41:49.444Z,14.85
2022-10-14T17:44:15.967Z,15.25
2022-10-14T17:46:43.078Z,15.55
2022-10-14T17:49:09.944Z,15.73
2022-10-14T17:51:37.889Z,15.82
2022-10-14T17:54:06.805Z,16.92
2022-10-14T17:56:36.043Z,15.85
2022-10-14T17:59:05.550Z,17.50
2022-10-14T18:01:37.928Z,17.08
2022-10-14T18:04:17.177Z,17.08
2022-10-14T18:06:45.029Z,17.10
2022-10-14T18:09:12.400Z,16.27
2022-10-14T18:12:06.973Z,16.05
2022-10-14T18:14:27.909Z,16.48
2022-10-14T18:16:54.513Z,17.83
2022-10-14T18:19:21.117Z,15.38
2022-10-14T18:21:48.013Z,17.25
2022-10-14T18:24:14.750Z,15.40
2022-10-14T18:26:41.312Z,16.90
2022-10-14T18:29:08.521Z,14.90
2022-10-14T18:31:35.390Z,16.77
2022-10-14T18:34:01.987Z,16.20
2022-10-14T18:36:30.332Z,17.30
2022-10-14T18:39:01.895Z,16.80
2022-10-14T18:41:29.483Z,14.27
2022-10-14T18:43:57.955Z,14.70
2022-10-14T18:46:30.081Z,16.70
2022-10-14T18:48:58.187Z,16.95
2022-10-14T18:51:27.086Z,18.38
2022-10-14T18:53:57.405Z,19.02
2022-10-14T18:56:26.115Z,20.83
2022-10-14T18:59:06.781Z,21.10
2022-10-14T19:01:34.883Z,18.33
2022-10-14T19:04:02.034Z,21.60
2022-10-14T19:06:28.535Z,20.88
2022-10-14T19:08:55.071Z,20.52
2022-10-14T19:11:23.581Z,19.25
2022-10-14T19:13:58.212Z,19.38
2022-10-14T19:16:27.269Z,19.38
2022-10-14T19:19:03.967Z,19.70
2022-10-14T19:21:30.777Z,18.48
2022-10-14T19:23:58.194Z,19.00
2022-10-14T19:26:26.584Z,17.95
2022-10-14T19:28:53.828Z,18.80
2022-10-14T19:31:22.314Z,19.33
2022-10-14T19:33:48.945Z,21.08
2022-10-14T19:36:16.933Z,20.20
2022-10-14T19:38:49.628Z,20.98
2022-10-14T19:41:16.175Z,20.25
2022-10-14T19:43:42.636Z,20.15
2022-10-14T19:46:10.713Z,19.90
2022-10-14T19:48:37.573Z,20.23
2022-10-14T19:51:07.100Z,23.73
2022-10-14T19:53:33.950Z,22.92
2022-10-14T19:56:11.075Z,23.67
2022-10-14T19:58:40.935Z,24.25
2022-10-14T20:01:11.544Z,25.77
2022-10-14T20:03:38.554Z,25.80
2022-10-14T20:06:05.727Z,28.42
2022-10-14T20:08:32.425Z,26.05
2022-10-14T20:11:03.324Z,24.65
2022-10-14T20:13:30.420Z,24.80
2022-10-14T20:15:58.729Z,24.10
2022-10-14T20:18:25.497Z,22.35
2022-10-14T20:20:52.024Z,22.42
2022-10-14T20:23:18.984Z,21.48
2022-10-14T20:25:46.378Z,21.88
2022-10-14T20:28:13.285Z,24.10
2022-10-14T20:30:40.649Z,24.77
2022-10-14T20:33:08.006Z,21.13
2022-10-14T20:35:35.208Z,19.45
2022-10-14T20:38:02.114Z,19.85
2022-10-14T20:40:29.581Z,21.05
2022-10-14T20:42:56.736Z,19.17
2022-10-14T20:45:23.484Z,19.17
2022-10-14T20:47:53.498Z,23.15
2022-10-14T20:50:21.408Z,24.02
2022-10-14T20:52:48.637Z,23.33
2022-10-14T20:55:15.375Z,21.98
2022-10-14T20:57:41.917Z,20.90
2022-10-14T21:00:08.973Z,21.70
2022-10-14T21:02:35.803Z,24.38
2022-10-14T21:05:02.569Z,20.70
2022-10-14T21:07:29.001Z,18.15
2022-10-14T21:09:55.624Z,18.33
2022-10-14T21:12:22.456Z,21.75
2022-10-14T21:14:49.449Z,21.08
2022-10-14T21:17:16.014Z,19.75
2022-10-14T21:19:42.498Z,18.08
2022-10-14T21:22:09.599Z,19.00
2022-10-14T21:24:36.277Z,17.27
2022-10-14T21:27:02.889Z,18.08
2022-10-14T21:29:29.525Z,20.42
2022-10-14T21:31:56.131Z,19.52
2022-10-14T21:34:24.795Z,17.70
2022-10-14T21:36:51.477Z,15.98
2022-10-14T21:39:18.547Z,13.75
2022-10-14T21:41:45.838Z,22.35
2022-10-14T21:44:17.786Z,16.38
2022-10-14T21:46:44.385Z,17.35
2022-10-14T21:49:11.169Z,19.30
2022-10-14T21:51:38.242Z,20.52
2022-10-14T21:54:05.151Z,17.92
2022-10-14T21:56:31.819Z,18.40
2022-10-14T21:58:58.707Z,18.88
2022-10-14T22:01:27.447Z,18.23
2022-10-14T22:03:59.236Z,17.17
2022-10-14T22:06:28.836Z,21.15
2022-10-14T22:08:57.320Z,26.40
2022-10-14T22:11:26.659Z,26.33
2022-10-14T22:13:54.400Z,22.30
2022-10-14T22:16:21.496Z,26.40
2022-10-14T22:18:50.466Z,21.27
2022-10-14T22:21:19.385Z,25.98
2022-10-14T22:23:47.589Z,27.00
2022-10-14T22:26:16.203Z,27.17
2022-10-14T22:28:43.281Z,26.63
2022-10-14T22:31:12.504Z,28.40
2022-10-14T22:33:39.595Z,26.08
2022-10-14T22:36:07.113Z,28.35
2022-10-14T22:38:34.218Z,29.52
2022-10-14T22:41:01.253Z,28.63
2022-10-14T22:43:28.004Z,26.67
2022-10-14T22:46:06.600Z,26.40
2022-10-14T22:48:34.354Z,26.13
2022-10-14T22:51:05.296Z,26.98
2022-10-14T22:53:32.640Z,27.75
2022-10-14T22:55:59.489Z,27.23
2022-10-14T22:58:26.367Z,26.20
2022-10-14T23:00:53.073Z,29.30
2022-10-14T23:03:20.308Z,28.40
2022-10-14T23:05:47.494Z,29.63
2022-10-14T23:08:14.950Z,29.05
2022-10-14T23:10:42.567Z,29.35
2022-10-14T23:13:09.840Z,28.35
2022-10-14T23:15:36.634Z,30.20
2022-10-14T23:18:03.886Z,30.35
2022-10-14T23:20:33.157Z,30.80
2022-10-14T23:22:59.722Z,30.80
2022-10-14T23:25:26.396Z,32.50
2022-10-14T23:27:52.883Z,30.98
2022-10-14T23:30:19.360Z,32.70
2022-10-14T23:32:45.889Z,33.35
2022-10-14T23:35:12.636Z,32.83
2022-10-14T23:37:39.171Z,33.72
2022-10-14T23:40:06.444Z,32.70
2022-10-14T23:42:33.002Z,32.70
2022-10-14T23:44:59.487Z,33.10
2022-10-14T23:47:26.324Z,33.28
2022-10-14T23:49:52.911Z,33.00
2022-10-14T23:52:19.370Z,32.63
2022-10-14T23:54:45.947Z,32.55
2022-10-14T23:57:12.525Z,30.85
2022-10-14T23:59:39.043Z,33.05
